Time;durP1;ratioP1;P1;durP2;ratioP2;P2;SDS_P1;SDS_P2;PMS_P1;PMS_P2;Temp;Humidity;BMP_temperature;BMP_pressure;BME280_temperature;BME280_humidity;BME280_pressure;Samples;Min_cycle;Max_cycle;Signal;HPM_P1;HPM_P2
2024/02/07 00:01:11;;;;;;;1.90;0.60;;;;;;;5.87;100.00;99075.30;104550;1257;67018;-57
2024/02/07 00:03:38;;;;;;;2.00;0.60;;;;;;;5.87;100.00;99069.40;104662;1263;72521;-56
2024/02/07 00:06:06;;;;;;;1.50;0.50;;;;;;;5.87;100.00;99061.39;104402;1263;60314;-53
2024/02/07 00:08:34;;;;;;;3.50;0.60;;;;;;;5.86;100.00;99056.63;104704;1257;59755;-55
2024/02/07 00:11:01;;;;;;;1.60;0.80;;;;;;;5.85;100.00;99047.77;104604;1263;73157;-59
2024/02/07 00:13:28;;;;;;;1.70;0.60;;;;;;;5.83;100.00;99039.30;104692;1258;66786;-56
2024/02/07 00:15:56;;;;;;;3.60;0.60;;;;;;;5.82;100.00;99036.31;105106;1260;71513;-55
2024/02/07 00:18:23;;;;;;;1.70;0.60;;;;;;;5.81;100.00;99037.23;104566;1263;60517;-53
2024/02/07 00:20:51;;;;;;;1.80;0.70;;;;;;;5.80;100.00;99036.55;104484;1257;60616;-56
2024/02/07 00:23:18;;;;;;;2.40;0.50;;;;;;;5.80;100.00;99037.80;104541;1268;73172;-54
2024/02/07 00:25:46;;;;;;;1.60;0.80;;;;;;;5.82;100.00;99037.38;104462;1263;67397;-59
2024/02/07 00:28:13;;;;;;;1.50;0.50;;;;;;;5.84;100.00;99034.10;104935;1264;72641;-57
2024/02/07 00:30:41;;;;;;;2.90;0.60;;;;;;;5.85;100.00;99029.95;104679;1258;59729;-55
2024/02/07 00:33:08;;;;;;;1.90;0.90;;;;;;;5.87;100.00;99023.27;104623;1257;60551;-58
2024/02/07 00:35:35;;;;;;;2.20;0.60;;;;;;;5.88;100.00;99021.11;104574;1257;71810;-56
2024/02/07 00:38:03;;;;;;;2.80;0.60;;;;;;;5.88;100.00;99020.59;104853;1263;67055;-53
2024/02/07 00:40:32;;;;;;;4.10;1.00;;;;;;;5.87;100.00;99020.09;104590;1263;73315;-56
2024/02/07 00:43:00;;;;;;;1.80;0.60;;;;;;;5.87;100.00;99017.74;104736;1261;59517;-55
2024/02/07 00:45:28;;;;;;;2.20;0.60;;;;;;;5.87;100.00;99013.86;104681;1264;59711;-56
2024/02/07 00:47:56;;;;;;;2.30;0.70;;;;;;;5.86;100.00;99016.36;104708;1258;72295;-55
2024/02/07 00:50:23;;;;;;;1.50;0.50;;;;;;;5.88;100.00;99015.07;105681;1263;67231;-56
2024/02/07 00:52:51;;;;;;;2.40;1.20;;;;;;;5.90;100.00;99009.81;105153;1264;74869;-55
2024/02/07 00:55:18;;;;;;;0.80;0.50;;;;;;;5.93;100.00;99007.92;104559;1262;60492;-58
2024/02/07 00:57:48;;;;;;;0.90;0.50;;;;;;;5.96;100.00;99010.28;104584;1264;59538;-55
2024/02/07 01:00:16;;;;;;;1.50;0.40;;;;;;;5.98;100.00;99006.63;104656;1257;71844;-54
2024/02/07 01:02:43;;;;;;;3.30;0.50;;;;;;;6.00;100.00;99001.40;104883;1257;66745;-55
2024/02/07 01:05:11;;;;;;;1.90;0.60;;;;;;;6.02;100.00;99002.91;105145;1263;72424;-53
2024/02/07 01:07:39;;;;;;;1.80;0.60;;;;;;;6.03;100.00;99001.83;105092;1257;60816;-55
2024/02/07 01:10:07;;;;;;;1.30;0.40;;;;;;;6.03;100.00;98994.52;104817;1263;61893;-57
2024/02/07 01:12:34;;;;;;;2.50;0.60;;;;;;;6.01;100.00;98992.43;105789;1262;73576;-55
2024/02/07 01:15:02;;;;;;;2.00;0.60;;;;;;;6.01;100.00;98985.66;104494;1263;65661;-58
2024/02/07 01:17:29;;;;;;;2.40;0.50;;;;;;;6.02;100.00;98983.16;104763;1257;72637;-56
2024/02/07 01:19:57;;;;;;;1.30;0.60;;;;;;;6.03;100.00;98982.22;105950;1258;61760;-54
2024/02/07 01:22:24;;;;;;;0.70;0.40;;;;;;;6.04;100.00;98980.36;106697;1258;59667;-56
2024/02/07 01:24:55;;;;;;;2.00;0.50;;;;;;;6.06;100.00;98977.63;104774;1262;72144;-54
2024/02/07 01:27:22;;;;;;;2.30;0.60;;;;;;;6.07;100.00;98977.03;106539;1257;65483;-54
2024/02/07 01:29:49;;;;;;;0.90;0.50;;;;;;;6.09;100.00;98971.09;104676;1260;73117;-58
2024/02/07 01:32:17;;;;;;;1.10;0.60;;;;;;;6.11;100.00;98966.59;104720;1262;60074;-60
2024/02/07 01:34:45;;;;;;;1.00;0.60;;;;;;;6.10;100.00;98966.61;104689;1263;60027;-56
2024/02/07 01:37:12;;;;;;;2.50;0.80;;;;;;;6.08;100.00;98964.73;108649;1260;73089;-53
2024/02/07 01:39:40;;;;;;;5.90;0.70;;;;;;;6.06;100.00;98959.45;107484;1257;65982;-51
2024/02/07 01:42:07;;;;;;;1.00;0.60;;;;;;;6.05;100.00;98958.05;104697;1260;72683;-54
2024/02/07 01:44:35;;;;;;;2.20;0.60;;;;;;;6.06;100.00;98954.83;104651;1263;61660;-52
2024/02/07 01:47:15;;;;;;;2.00;0.50;;;;;;;6.09;100.00;98953.48;104515;1263;61599;-54
2024/02/07 01:49:50;;;;;;;2.10;0.60;;;;;;;6.12;100.00;98961.39;104429;1258;71878;-57
2024/02/07 01:52:21;;;;;;;1.30;0.60;;;;;;;6.14;100.00;98957.71;105740;1258;66241;-54
2024/02/07 01:54:48;;;;;;;2.40;0.60;;;;;;;6.16;100.00;98954.77;108721;1258;70950;-56
2024/02/07 01:57:16;;;;;;;1.30;0.60;;;;;;;6.16;100.00;98950.84;108228;1257;58286;-55
2024/02/07 01:59:43;;;;;;;1.50;0.60;;;;;;;6.16;100.00;98954.57;104568;1263;59709;-56
2024/02/07 02:02:11;;;;;;;4.60;0.60;;;;;;;6.16;100.00;98952.10;105906;1257;71373;-54
2024/02/07 02:04:39;;;;;;;1.30;0.50;;;;;;;6.15;100.00;98951.06;104614;1258;66124;-56
2024/02/07 02:07:06;;;;;;;2.80;0.60;;;;;;;6.15;100.00;98944.98;104991;1260;71511;-56
2024/02/07 02:09:34;;;;;;;1.00;0.60;;;;;;;6.15;100.00;98945.52;104742;1264;61596;-52
2024/02/07 02:12:01;;;;;;;1.00;0.60;;;;;;;6.16;100.00;98936.93;104763;1257;60092;-54
2024/02/07 02:14:29;;;;;;;1.10;0.60;;;;;;;6.18;100.00;98932.44;104759;1262;72114;-52
2024/02/07 02:16:59;;;;;;;1.90;0.60;;;;;;;6.18;100.00;98930.45;104818;1263;65632;-52
2024/02/07 02:19:26;;;;;;;1.10;0.70;;;;;;;6.19;100.00;98929.17;104542;1262;71689;-53
2024/02/07 02:22:21;;;;;;;1.80;0.70;;;;;;;6.19;100.00;98928.63;105774;1258;60159;-58
2024/02/07 02:24:55;;;;;;;2.10;0.50;;;;;;;6.18;100.00;98934.17;104763;1258;59562;-59
2024/02/07 02:27:34;;;;;;;1.20;0.60;;;;;;;6.17;100.00;98931.41;104771;1258;72696;-52
2024/02/07 02:30:09;;;;;;;0.80;0.60;;;;;;;6.15;100.00;98931.29;104730;1257;66416;-56
2024/02/07 02:32:38;;;;;;;1.40;0.50;;;;;;;6.15;100.00;98931.10;105215;1263;72715;-56
2024/02/07 02:35:07;;;;;;;1.90;0.50;;;;;;;6.16;100.00;98925.17;105219;1261;60415;-56
2024/02/07 02:37:35;;;;;;;1.00;0.40;;;;;;;6.17;100.00;98929.23;104886;1257;60882;-59
2024/02/07 02:40:05;;;;;;;2.60;0.50;;;;;;;6.19;100.00;98929.02;105150;1263;73107;-56
2024/02/07 02:42:33;;;;;;;1.60;0.50;;;;;;;6.19;100.00;98924.55;104911;1258;67350;-54
2024/02/07 02:45:01;;;;;;;2.30;0.60;;;;;;;6.18;100.00;98927.80;104849;1261;71694;-54
2024/02/07 02:47:31;;;;;;;2.50;0.50;;;;;;;6.17;100.00;98921.25;104588;1261;60084;-57
2024/02/07 02:50:00;;;;;;;2.40;0.50;;;;;;;6.15;100.00;98919.54;104922;1259;60444;-57
2024/02/07 02:52:28;;;;;;;2.00;0.60;;;;;;;6.14;100.00;98913.71;105004;1256;74082;-54
2024/02/07 02:54:56;;;;;;;2.50;0.90;;;;;;;6.13;100.00;98913.41;105278;1254;66096;-53
2024/02/07 02:57:24;;;;;;;1.20;0.50;;;;;;;6.13;100.00;98913.77;105134;1258;72756;-55
2024/02/07 02:59:51;;;;;;;1.20;0.50;;;;;;;6.14;100.00;98911.92;104892;1254;60129;-56
2024/02/07 03:02:20;;;;;;;1.00;0.70;;;;;;;6.15;100.00;98906.35;105105;1254;59935;-54
2024/02/07 03:04:50;;;;;;;2.40;0.50;;;;;;;6.16;100.00;98907.02;105023;1255;72175;-60
2024/02/07 03:07:45;;;;;;;1.70;0.70;;;;;;;6.16;100.00;98908.98;105219;1257;65944;-58
2024/02/07 03:10:12;;;;;;;2.10;0.60;;;;;;;6.16;100.00;98909.89;106567;1256;71562;-55
2024/02/07 03:12:41;;;;;;;0.80;0.60;;;;;;;6.13;100.00;98901.45;105463;1255;59712;-53
2024/02/07 03:15:10;;;;;;;2.30;0.50;;;;;;;6.12;100.00;98897.61;104968;1254;60123;-56
2024/02/07 03:17:37;;;;;;;1.30;0.60;;;;;;;6.11;100.00;98889.63;105553;1258;73667;-56
2024/02/07 03:20:06;;;;;;;0.90;0.70;;;;;;;6.11;100.00;98886.27;105410;1255;66703;-56
2024/02/07 03:22:33;;;;;;;1.40;0.40;;;;;;;6.12;100.00;98882.66;105245;1260;71545;-55
2024/02/07 03:25:00;;;;;;;1.50;0.80;;;;;;;6.12;100.00;98885.33;104948;1259;62172;-55
2024/02/07 03:27:28;;;;;;;1.00;0.50;;;;;;;6.13;100.00;98880.06;104807;1258;59738;-55
2024/02/07 03:29:56;;;;;;;1.30;0.50;;;;;;;6.14;100.00;98868.64;104841;1258;73554;-54
2024/02/07 03:32:24;;;;;;;4.80;0.80;;;;;;;6.15;100.00;98867.17;104816;1254;65751;-51
2024/02/07 03:34:51;;;;;;;1.90;0.40;;;;;;;6.15;100.00;98862.20;104823;1260;72775;-55
2024/02/07 03:37:19;;;;;;;0.70;0.40;;;;;;;6.14;100.00;98864.73;105344;1258;60903;-56
2024/02/07 03:39:46;;;;;;;1.10;0.40;;;;;;;6.14;100.00;98862.25;104996;1253;60069;-56
2024/02/07 03:42:14;;;;;;;1.70;0.50;;;;;;;6.14;100.00;98856.35;104848;1253;73274;-55
2024/02/07 03:44:43;;;;;;;1.10;0.40;;;;;;;6.14;100.00;98855.97;105011;1254;67481;-55
2024/02/07 03:47:10;;;;;;;1.00;0.40;;;;;;;6.17;100.00;98855.16;104879;1254;72739;-56
2024/02/07 03:49:40;;;;;;;1.00;0.40;;;;;;;6.19;100.00;98852.23;104829;1254;60566;-58
2024/02/07 03:52:07;;;;;;;1.50;0.60;;;;;;;6.21;100.00;98855.14;104789;1254;62502;-60
2024/02/07 03:54:48;;;;;;;1.20;0.50;;;;;;;6.23;100.00;98851.46;104612;1260;72023;-55
2024/02/07 03:57:19;;;;;;;0.80;0.50;;;;;;;6.24;100.00;98852.67;104710;1253;66982;-60
2024/02/07 03:59:47;;;;;;;6.90;1.10;;;;;;;6.25;100.00;98854.23;104670;1254;73176;-55
2024/02/07 04:02:21;;;;;;;6.40;0.80;;;;;;;6.25;100.00;98848.02;105173;1254;60479;-56
2024/02/07 04:04:52;;;;;;;5.10;0.70;;;;;;;6.24;100.00;98848.20;104564;1253;61013;-60
2024/02/07 04:07:21;;;;;;;3.80;0.50;;;;;;;6.24;100.00;98849.47;107014;1256;73906;-56
2024/02/07 04:09:49;;;;;;;1.10;0.50;;;;;;;6.25;100.00;98848.02;106473;1258;65774;-59
2024/02/07 05:17:48;;;;;;;1.00;0.60;;;;;;;6.40;100.00;98785.82;104893;1258;66285;-55
2024/02/07 05:20:15;;;;;;;2.30;0.60;;;;;;;6.38;100.00;98785.40;104843;1256;72531;-56
2024/02/07 05:22:43;;;;;;;1.30;0.50;;;;;;;6.36;100.00;98783.17;104946;1254;60900;-54
2024/02/07 05:25:11;;;;;;;1.10;0.60;;;;;;;6.35;100.00;98782.89;104778;1259;60517;-53
2024/02/07 05:27:39;;;;;;;0.90;0.50;;;;;;;6.34;100.00;98785.23;104998;1259;73912;-55
2024/02/07 05:30:07;;;;;;;3.20;0.50;;;;;;;6.34;100.00;98783.45;104748;1260;65831;-55
2024/02/07 05:32:34;;;;;;;2.00;0.40;;;;;;;6.35;100.00;98781.25;106382;1253;73150;-56
2024/02/07 05:35:02;;;;;;;1.80;0.50;;;;;;;6.37;100.00;98783.48;107652;1255;58418;-53
2024/02/07 05:37:30;;;;;;;1.50;0.50;;;;;;;6.38;100.00;98785.56;105667;1253;60464;-59
2024/02/07 05:39:57;;;;;;;0.70;0.50;;;;;;;6.39;100.00;98784.60;105079;1254;72623;-54
2024/02/07 05:42:25;;;;;;;1.00;0.40;;;;;;;6.39;100.00;98788.71;104766;1254;67139;-56
2024/02/07 05:44:52;;;;;;;0.90;0.40;;;;;;;6.39;100.00;98785.70;104915;1254;71686;-55
2024/02/07 05:47:20;;;;;;;0.60;0.30;;;;;;;6.39;100.00;98790.69;104785;1257;60473;-55
2024/02/07 05:49:47;;;;;;;2.30;0.40;;;;;;;6.40;100.00;98786.52;105019;1256;61685;-56
2024/02/07 05:52:15;;;;;;;1.40;0.70;;;;;;;6.43;100.00;98787.31;105161;1254;72960;-55
2024/02/07 05:54:44;;;;;;;0.70;0.40;;;;;;;6.46;100.00;98788.41;105294;1255;66891;-55
2024/02/07 05:57:12;;;;;;;1.20;0.50;;;;;;;6.50;100.00;98787.86;104791;1258;71446;-56
2024/02/07 05:59:40;;;;;;;0.50;0.40;;;;;;;6.54;100.00;98778.95;105007;1254;60459;-56
2024/02/07 06:02:07;;;;;;;3.20;0.40;;;;;;;6.57;100.00;98779.14;108492;1254;60001;-57
2024/02/07 06:04:34;;;;;;;0.90;0.40;;;;;;;6.59;100.00;98778.15;104835;1256;73888;-54
2024/02/07 06:07:02;;;;;;;0.90;0.30;;;;;;;6.61;100.00;98772.92;108923;1253;65062;-58
2024/02/07 06:09:30;;;;;;;0.60;0.40;;;;;;;6.63;100.00;98781.20;106205;1256;70992;-58
2024/02/07 06:11:57;;;;;;;2.50;0.40;;;;;;;6.65;100.00;98775.90;104992;1258;60673;-57
2024/02/07 06:14:25;;;;;;;2.30;0.60;;;;;;;6.68;100.00;98779.89;104915;1256;60422;-56
2024/02/07 06:16:53;;;;;;;1.80;0.40;;;;;;;6.71;100.00;98776.52;104891;1254;72625;-56
2024/02/07 06:19:20;;;;;;;0.40;0.30;;;;;;;6.76;100.00;98775.04;104885;1258;65733;-59
2024/02/07 06:21:50;;;;;;;0.60;0.40;;;;;;;6.81;100.00;98776.90;104841;1254;75591;-57
2024/02/07 06:24:18;;;;;;;0.80;0.50;;;;;;;6.87;100.00;98781.83;104850;1256;61572;-56
2024/02/07 06:26:45;;;;;;;0.80;0.40;;;;;;;6.90;100.00;98781.45;104887;1253;61911;-57
2024/02/07 06:29:13;;;;;;;0.80;0.40;;;;;;;6.93;100.00;98785.95;104855;1254;72649;-55
2024/02/07 06:31:40;;;;;;;1.00;0.40;;;;;;;6.96;100.00;98789.95;104583;1254;65733;-57
2024/02/07 06:34:07;;;;;;;0.70;0.40;;;;;;;6.97;100.00;98786.11;104533;1254;73601;-56
2024/02/07 06:36:35;;;;;;;0.60;0.30;;;;;;;6.99;100.00;98787.80;107173;1254;60406;-55
2024/02/07 06:39:02;;;;;;;0.50;0.30;;;;;;;7.02;100.00;98792.31;104689;1256;60499;-57
2024/02/07 06:41:29;;;;;;;0.50;0.40;;;;;;;7.05;100.00;98790.40;104965;1256;72716;-55
2024/02/07 06:43:57;;;;;;;1.80;0.40;;;;;;;7.08;100.00;98788.23;104801;1258;65667;-56
2024/02/07 06:46:25;;;;;;;0.70;0.40;;;;;;;7.12;100.00;98794.31;105044;1258;71725;-57
2024/02/07 06:48:52;;;;;;;0.80;0.40;;;;;;;7.14;100.00;98790.80;104633;1255;61074;-60
2024/02/07 06:51:20;;;;;;;2.20;0.40;;;;;;;7.17;100.00;98796.56;104716;1259;60426;-55
2024/02/07 06:53:47;;;;;;;0.80;0.50;;;;;;;7.19;100.00;98794.14;105489;1255;72567;-55
2024/02/07 06:56:14;;;;;;;3.60;0.40;;;;;;;7.19;100.00;98797.48;104800;1257;65985;-54
2024/02/07 06:58:42;;;;;;;0.90;0.40;;;;;;;7.19;100.00;98792.86;104785;1259;71987;-60
2024/02/07 07:01:09;;;;;;;0.90;0.30;;;;;;;7.20;100.00;98790.48;107861;1258;62711;-57
2024/02/07 07:03:37;;;;;;;2.80;0.40;;;;;;;7.23;100.00;98789.82;104815;1256;60441;-54
2024/02/07 07:06:04;;;;;;;0.80;0.40;;;;;;;7.27;100.00;98794.08;104717;1255;73067;-56
2024/02/07 07:08:31;;;;;;;0.50;0.40;;;;;;;7.31;100.00;98796.01;104766;1258;67529;-57
2024/02/07 07:10:59;;;;;;;0.40;0.30;;;;;;;7.35;100.00;98801.52;104780;1254;71291;-53
2024/02/07 07:13:26;;;;;;;1.20;0.50;;;;;;;7.39;100.00;98800.46;104998;1256;60427;-55
2024/02/07 07:15:53;;;;;;;0.70;0.40;;;;;;;7.40;100.00;98803.93;105394;1254;61041;-58
2024/02/07 07:18:21;;;;;;;1.10;0.40;;;;;;;7.43;100.00;98801.86;104968;1256;74346;-53
2024/02/07 07:20:48;;;;;;;1.30;0.50;;;;;;;7.43;100.00;98803.44;104939;1255;65654;-54
2024/02/07 07:23:16;;;;;;;2.30;0.40;;;;;;;7.43;100.00;98798.60;104695;1260;71711;-55
2024/02/07 07:25:43;;;;;;;1.60;0.40;;;;;;;7.44;100.00;98791.06;109032;1254;61498;-55
2024/02/07 07:28:11;;;;;;;3.50;0.30;;;;;;;7.47;100.00;98800.05;108843;1254;58829;-57
2024/02/07 07:30:39;;;;;;;0.80;0.30;;;;;;;7.50;100.00;98805.02;109025;1254;72597;-54
2024/02/07 07:33:06;;;;;;;0.90;0.30;;;;;;;7.54;100.00;98808.79;108967;1256;67367;-59
2024/02/07 07:35:33;;;;;;;0.90;0.40;;;;;;;7.58;100.00;98815.52;109010;1254;74471;-55
2024/02/07 07:38:03;;;;;;;1.00;0.30;;;;;;;7.62;100.00;98816.08;108661;1254;60492;-53
2024/02/07 07:40:32;;;;;;;1.40;0.40;;;;;;;7.64;100.00;98824.86;108834;1253;59320;-54
2024/02/07 07:43:00;;;;;;;0.60;0.40;;;;;;;7.65;100.00;98822.67;109058;1253;74327;-57
2024/02/07 07:45:27;;;;;;;2.50;0.30;;;;;;;7.66;100.00;98821.59;108979;1254;67025;-56
2024/02/07 07:47:55;;;;;;;0.60;0.40;;;;;;;7.67;100.00;98817.39;108936;1254;72709;-55
2024/02/07 07:50:23;;;;;;;1.40;0.40;;;;;;;7.68;100.00;98822.00;108961;1254;60454;-54
2024/02/07 07:52:51;;;;;;;0.60;0.30;;;;;;;7.69;100.00;98820.69;108122;1254;60457;-58
2024/02/07 07:55:18;;;;;;;1.50;0.30;;;;;;;7.72;100.00;98822.71;104983;1254;71647;-56
2024/02/07 07:57:46;;;;;;;0.80;0.30;;;;;;;7.74;100.00;98817.38;104810;1254;65776;-54
2024/02/07 08:00:14;;;;;;;0.80;0.20;;;;;;;7.77;100.00;98817.23;104815;1255;71509;-56
2024/02/07 08:02:41;;;;;;;0.40;0.30;;;;;;;7.79;100.00;98810.33;105250;1254;60440;-53
2024/02/07 08:05:08;;;;;;;0.60;0.30;;;;;;;7.80;100.00;98809.95;104730;1254;60441;-52
2024/02/07 08:07:36;;;;;;;0.80;0.40;;;;;;;7.79;100.00;98804.80;104812;1254;72635;-54
2024/02/07 08:10:04;;;;;;;1.60;0.60;;;;;;;7.78;100.00;98802.71;104694;1258;65944;-54
2024/02/07 08:12:32;;;;;;;1.80;0.40;;;;;;;7.77;100.00;98806.14;105000;1256;71560;-56
2024/02/07 08:14:59;;;;;;;0.70;0.30;;;;;;;7.76;100.00;98802.63;104885;1256;60526;-54
2024/02/07 08:17:26;;;;;;;1.80;0.60;;;;;;;7.76;100.00;98799.58;104981;1254;61018;-55
2024/02/07 08:19:53;;;;;;;0.50;0.30;;;;;;;7.77;100.00;98801.86;104606;1259;74401;-56
2024/02/07 08:22:21;;;;;;;1.20;0.50;;;;;;;7.79;100.00;98797.50;105135;1254;66824;-57
2024/02/07 08:24:48;;;;;;;3.00;0.60;;;;;;;7.82;100.00;98799.47;105001;1254;72845;-55
2024/02/07 08:27:16;;;;;;;2.60;0.70;;;;;;;7.86;100.00;98798.17;104656;1254;60003;-54
2024/02/07 08:29:43;;;;;;;4.50;0.60;;;;;;;7.90;100.00;98797.98;105012;1257;60753;-54
2024/02/07 08:32:10;;;;;;;2.60;0.40;;;;;;;7.94;100.00;98802.21;105017;1256;72623;-53
2024/02/07 08:34:38;;;;;;;1.50;0.60;;;;;;;7.96;100.00;98797.80;104896;1256;67347;-55
2024/02/07 08:37:06;;;;;;;1.90;0.70;;;;;;;7.98;100.00;98796.33;105238;1255;72798;-55
2024/02/07 08:39:33;;;;;;;2.50;0.70;;;;;;;7.99;100.00;98795.11;105042;1256;60535;-57
2024/02/07 08:42:05;;;;;;;2.20;0.60;;;;;;;8.01;100.00;98796.48;104953;1258;60369;-55
2024/02/07 08:44:32;;;;;;;3.50;0.60;;;;;;;8.01;100.00;98793.10;105003;1254;75456;-58
2024/02/07 08:47:02;;;;;;;1.60;0.50;;;;;;;8.02;100.00;98797.17;104666;1258;67892;-54
2024/02/07 08:49:29;;;;;;;0.90;0.40;;;;;;;8.04;100.00;98798.85;105156;1254;73195;-53
2024/02/07 08:51:57;;;;;;;0.90;0.40;;;;;;;8.07;100.00;98795.27;104736;1258;60570;-53
2024/02/07 08:54:24;;;;;;;0.50;0.30;;;;;;;8.12;100.00;98791.09;104898;1256;60529;-53
2024/02/07 08:56:51;;;;;;;0.60;0.40;;;;;;;8.17;100.00;98793.14;104882;1254;73962;-55
2024/02/07 08:59:19;;;;;;;3.10;0.40;;;;;;;8.20;100.00;98784.37;105047;1256;66284;-53
2024/02/07 09:01:46;;;;;;;2.40;0.40;;;;;;;8.25;100.00;98776.10;104941;1256;73619;-56
2024/02/07 09:04:14;;;;;;;2.00;0.60;;;;;;;8.28;100.00;98777.67;104815;1256;60491;-58
2024/02/07 09:06:41;;;;;;;1.30;0.60;;;;;;;8.34;100.00;98781.34;104860;1255;60547;-55
2024/02/07 09:09:08;;;;;;;1.20;0.50;;;;;;;8.40;100.00;98775.85;104867;1256;73874;-58
2024/02/07 09:11:35;;;;;;;1.30;0.70;;;;;;;8.47;100.00;98778.31;104858;1253;66662;-55
2024/02/07 09:14:03;;;;;;;1.30;0.60;;;;;;;8.53;100.00;98783.13;104663;1256;71505;-55
2024/02/07 09:16:30;;;;;;;1.70;0.70;;;;;;;8.59;100.00;98774.92;104839;1256;60395;-52
2024/02/07 09:18:57;;;;;;;0.70;0.50;;;;;;;8.66;100.00;98778.50;104678;1258;60420;-54
2024/02/07 09:21:27;;;;;;;0.80;0.40;;;;;;;8.74;100.00;98781.27;104959;1258;75404;-58
2024/02/07 09:23:55;;;;;;;0.80;0.50;;;;;;;8.83;100.00;98781.44;106249;1255;65958;-52
2024/02/07 09:26:23;;;;;;;1.80;0.40;;;;;;;8.95;100.00;98783.62;104880;1256;71730;-54
2024/02/07 09:28:50;;;;;;;1.30;0.40;;;;;;;9.07;100.00;98791.52;104903;1254;60448;-55
2024/02/07 09:31:17;;;;;;;2.10;0.50;;;;;;;9.18;100.00;98791.09;107319;1254;60487;-57
2024/02/07 09:33:45;;;;;;;2.60;0.40;;;;;;;9.28;100.00;98797.65;106383;1258;75933;-57
2024/02/07 09:36:12;;;;;;;1.70;0.40;;;;;;;9.36;100.00;98798.06;104657;1258;65942;-56
2024/02/07 09:38:40;;;;;;;0.40;0.30;;;;;;;9.42;100.00;98808.65;104895;1255;71470;-55
2024/02/07 09:41:08;;;;;;;1.50;0.30;;;;;;;9.46;100.00;98814.64;104930;1258;60528;-55
2024/02/07 09:43:35;;;;;;;1.70;0.40;;;;;;;9.48;100.00;98809.91;105099;1256;60303;-56
2024/02/07 09:46:05;;;;;;;0.80;0.50;;;;;;;9.48;100.00;98810.95;104597;1254;74056;-54
2024/02/07 09:48:32;;;;;;;1.40;0.50;;;;;;;9.49;100.00;98808.77;105936;1260;67167;-57
2024/02/07 09:51:00;;;;;;;1.40;0.40;;;;;;;9.53;100.00;98813.59;104728;1254;72766;-55
2024/02/07 09:53:28;;;;;;;0.40;0.30;;;;;;;9.55;100.00;98812.55;104788;1256;61062;-55
2024/02/07 09:55:59;;;;;;;1.20;0.40;;;;;;;9.56;100.00;98811.04;105366;1256;60615;-55
2024/02/07 09:58:27;;;;;;;2.40;0.40;;;;;;;9.56;100.00;98810.48;105292;1256;74305;-56
2024/02/07 10:00:54;;;;;;;1.90;0.40;;;;;;;9.58;100.00;98805.02;104699;1256;67427;-55
2024/02/07 10:03:24;;;;;;;0.50;0.30;;;;;;;9.60;100.00;98801.88;105114;1257;71090;-52
2024/02/07 10:05:54;;;;;;;1.90;0.40;;;;;;;9.61;100.00;98809.09;105577;1255;60555;-55
2024/02/07 10:08:23;;;;;;;1.30;0.40;;;;;;;9.62;100.00;98809.23;105083;1260;60502;-54
2024/02/07 10:10:51;;;;;;;0.50;0.40;;;;;;;9.60;100.00;98802.54;104758;1255;72999;-56
2024/02/07 10:13:18;;;;;;;1.00;0.30;;;;;;;9.59;100.00;98809.08;104934;1258;67235;-56
2024/02/07 10:15:47;;;;;;;0.70;0.40;;;;;;;9.58;100.00;98817.20;104689;1256;72762;-54
2024/02/07 10:18:15;;;;;;;1.00;0.50;;;;;;;9.55;100.00;98808.61;108902;1254;59095;-54
2024/02/07 10:20:54;;;;;;;3.30;0.50;;;;;;;9.49;100.00;98809.48;108892;1253;58839;-58
2024/02/07 10:23:22;;;;;;;3.30;0.50;;;;;;;9.44;100.00;98807.10;108492;1255;72637;-56
2024/02/07 10:25:51;;;;;;;2.20;0.60;;;;;;;9.41;100.00;98803.33;108899;1254;66847;-55
2024/02/07 10:28:19;;;;;;;3.10;0.50;;;;;;;9.38;100.00;98800.96;109155;1253;72575;-58
2024/02/07 10:31:00;;;;;;;1.60;0.40;;;;;;;9.36;100.00;98802.90;108874;1260;59076;-57
2024/02/07 10:33:34;;;;;;;0.80;0.50;;;;;;;9.33;100.00;98805.59;109001;1254;58894;-55
2024/02/07 10:36:10;;;;;;;2.10;0.50;;;;;;;9.31;100.00;98806.96;108897;1258;72729;-55
2024/02/07 10:38:38;;;;;;;0.90;0.40;;;;;;;9.29;100.00;98799.02;108941;1255;66628;-55
2024/02/07 10:41:06;;;;;;;0.90;0.80;;;;;;;9.29;100.00;98802.95;109031;1256;71470;-57
2024/02/07 10:43:35;;;;;;;1.50;0.40;;;;;;;9.30;100.00;98802.72;108930;1254;58229;-58
2024/02/07 10:46:04;;;;;;;1.10;0.50;;;;;;;9.31;100.00;98797.11;108882;1254;58859;-58
2024/02/07 10:48:36;;;;;;;2.40;0.50;;;;;;;9.34;100.00;98800.35;109189;1254;71928;-54
2024/02/07 10:51:04;;;;;;;1.70;0.50;;;;;;;9.36;100.00;98803.81;107627;1255;66987;-58
2024/02/07 10:53:34;;;;;;;1.20;0.60;;;;;;;9.37;100.00;98803.02;107266;1256;73606;-52
2024/02/07 10:56:03;;;;;;;1.60;0.50;;;;;;;9.38;100.00;98806.02;104602;1255;60441;-58
2024/02/07 10:58:32;;;;;;;1.00;0.50;;;;;;;9.39;100.00;98805.42;108849;1254;60103;-56
2024/02/07 11:01:00;;;;;;;3.00;0.50;;;;;;;9.40;100.00;98808.24;105969;1261;71855;-59
2024/02/07 11:03:29;;;;;;;0.90;0.30;;;;;;;9.39;100.00;98805.05;105462;1258;67908;-57
2024/02/07 11:05:58;;;;;;;0.60;0.30;;;;;;;9.39;100.00;98809.19;105067;1256;71482;-55
2024/02/07 11:08:28;;;;;;;1.70;0.40;;;;;;;9.38;100.00;98807.59;104806;1256;60611;-58
2024/02/07 11:10:56;;;;;;;1.40;0.70;;;;;;;9.37;100.00;98809.08;107894;1255;59104;-55
2024/02/07 11:13:25;;;;;;;1.20;0.40;;;;;;;9.35;100.00;98808.33;104570;1256;75963;-57
2024/02/07 11:15:53;;;;;;;0.80;0.40;;;;;;;9.34;100.00;98808.41;104371;1256;67064;-57
2024/02/07 11:18:20;;;;;;;2.60;0.70;;;;;;;9.32;100.00;98802.08;104777;1254;72968;-57
2024/02/07 11:20:48;;;;;;;2.70;0.50;;;;;;;9.29;100.00;98799.89;105000;1258;62201;-55
2024/02/07 11:23:18;;;;;;;1.60;0.50;;;;;;;9.28;100.00;98801.04;104800;1258;60394;-55
2024/02/07 11:25:45;;;;;;;3.00;0.50;;;;;;;9.27;100.00;98802.34;104969;1256;73664;-54
2024/02/07 11:28:13;;;;;;;0.80;0.40;;;;;;;9.27;100.00;98802.58;104712;1257;67059;-56
2024/02/07 11:30:40;;;;;;;1.90;0.40;;;;;;;9.24;100.00;98792.69;104847;1258;71059;-56
2024/02/07 11:33:08;;;;;;;1.60;0.40;;;;;;;9.22;100.00;98786.90;104601;1256;60531;-51
2024/02/07 11:35:36;;;;;;;1.80;0.40;;;;;;;9.19;100.00;98790.48;105022;1256;60314;-54
2024/02/07 11:38:04;;;;;;;0.70;0.40;;;;;;;9.18;100.00;98782.66;104899;1254;73010;-56
2024/02/07 11:40:40;;;;;;;2.30;0.50;;;;;;;9.18;100.00;98776.92;104639;1254;66960;-56
2024/02/07 11:43:10;;;;;;;1.50;0.50;;;;;;;9.18;100.00;98780.73;104935;1255;72801;-56
2024/02/07 11:45:37;;;;;;;1.50;0.50;;;;;;;9.17;100.00;98782.76;104674;1254;61272;-57
2024/02/07 11:48:18;;;;;;;3.20;0.80;;;;;;;9.16;100.00;98781.54;105232;1256;60544;-56
2024/02/07 11:50:47;;;;;;;1.20;0.50;;;;;;;9.15;100.00;98782.65;105176;1254;72741;-57
2024/02/07 11:55:46;;;;;;;0.80;0.50;;;;;;;9.14;100.00;98907.27;101817;1294;600852;-56
2024/02/07 11:58:17;;;;;;;0.60;0.40;;;;;;;9.11;100.00;98939.50;104224;1270;59277;-54
2024/02/07 12:00:46;;;;;;;1.50;0.40;;;;;;;9.10;100.00;98907.52;103728;1266;59311;-55
2024/02/07 12:03:14;;;;;;;1.70;0.50;;;;;;;9.10;100.00;98892.29;105421;1267;71048;-53
2024/02/07 12:05:42;;;;;;;3.10;0.40;;;;;;;9.11;100.00;98874.33;103828;1267;65960;-59
2024/02/07 12:08:11;;;;;;;1.10;0.40;;;;;;;9.13;100.00;98859.75;104783;1272;72146;-59
2024/02/07 12:10:38;;;;;;;1.10;0.30;;;;;;;9.16;100.00;98860.67;105094;1271;59474;-59
2024/02/07 12:13:07;;;;;;;1.20;0.50;;;;;;;9.19;100.00;98849.75;104573;1272;59631;-58
2024/02/07 12:15:36;;;;;;;1.30;0.40;;;;;;;9.21;100.00;98847.44;104291;1267;72364;-56
2024/02/07 12:18:07;;;;;;;3.30;0.50;;;;;;;9.23;100.00;98846.64;103882;1269;67137;-58
2024/02/07 12:20:36;;;;;;;0.60;0.40;;;;;;;9.24;100.00;98836.23;104632;1271;71491;-58
2024/02/07 12:23:06;;;;;;;2.30;0.40;;;;;;;9.23;100.00;98834.83;104164;1271;59744;-58
2024/02/07 12:25:33;;;;;;;1.80;0.50;;;;;;;9.23;100.00;98828.20;105808;1270;59005;-58
2024/02/07 12:28:08;;;;;;;2.20;0.40;;;;;;;9.22;100.00;98821.27;105260;1269;71863;-58
2024/02/07 12:30:37;;;;;;;3.50;0.80;;;;;;;9.22;100.00;98828.99;105750;1267;67057;-58
2024/02/07 12:33:04;;;;;;;7.50;0.40;;;;;;;9.21;100.00;98821.85;104184;1266;71488;-59
2024/02/07 12:35:32;;;;;;;2.10;0.90;;;;;;;9.21;100.00;98822.25;104000;1267;59623;-59
2024/02/07 12:38:00;;;;;;;3.80;0.50;;;;;;;9.20;100.00;98824.09;104854;1267;59862;-59